Storm Events Database

Event Details

Event Thunderstorm Wind
Magnitude 52 kts.
State KENTUCKY
County/Area FLEMING
WFO JKL
Report Source State Official
NCDC Data Source CSV
Begin Date 2012-06-29 17:18:00.0 EST-5
Begin Location 1W FLEMINGSBURG
Begin Lat/Lon 38.42/-83.74
End Date 2012-06-29 17:18:00.0 EST-5
Deaths Direct/Indirect 0/0 (fatality details below, when available...)
Injuries Direct/Indirect 0/0
Property Damage 100.00K
Crop Damage
Episode Narrative During the afternoon hours of June 29th, a thunderstorm complex over northern Illinois and Indiana began to organize north of a stationary boundary. The storms became more organized as they tracked through central Ohio. The complex of storms developed into a derecho as it tracked through Ohio and into West Virginia and Virginia. The resulting system produced a large area of damaging winds. As the derecho tracked through the northern portion of Kentucky, a gust front was produced and tracked south across eastern Kentucky. Numerous reports of wind damage was recieved as the gust front pushed south.
Event Narrative Trees and power lines were blown down countywide.


     ‚Äč



All events for this episode:

Location County/Zone St. Date Time T.Z. Type Mag Dth Inj PrD CrD
Totals: 0 0 742.00K 0.00K
FLEMINGSBURG FLEMING CO. KY 06/29/2012 17:18 EST-5 Thunderstorm Wind 52 kts. EG 0 0 100.00K 0.00K
CRANSTON ROWAN CO. KY 06/29/2012 17:35 EST-5 Thunderstorm Wind 52 kts. EG 0 0 5.00K 0.00K
SALT LICK BATH CO. KY 06/29/2012 17:45 EST-5 Thunderstorm Wind 52 kts. EG 0 0 2.00K 0.00K
POLKSVILLE BATH CO. KY 06/29/2012 17:49 EST-5 Thunderstorm Wind 52 kts. EG 0 0 5.00K 0.00K
SALT LICK BATH CO. KY 06/29/2012 17:49 EST-5 Thunderstorm Wind 52 kts. EG 0 0 10.00K 0.00K
GRASSY LICK MONTGOMERY CO. KY 06/29/2012 17:50 EST-5 Thunderstorm Wind 52 kts. EG 0 0 30.00K 0.00K
PRESTON BATH CO. KY 06/29/2012 17:50 EST-5 Thunderstorm Wind 59 kts. MG 0 0 10.00K 0.00K
SANDY HOOK ELLIOTT CO. KY 06/29/2012 17:55 EST-5 Thunderstorm Wind 52 kts. EG 0 0 50.00K 0.00K
WELLINGTON MENIFEE CO. KY 06/29/2012 18:04 EST-5 Thunderstorm Wind 52 kts. EG 0 0 100.00K 0.00K
STANTON POWELL CO. KY 06/29/2012 18:08 EST-5 Thunderstorm Wind 52 kts. EG 0 0 80.00K 0.00K
EZEL MORGAN CO. KY 06/29/2012 18:10 EST-5 Thunderstorm Wind 52 kts. EG 0 0 5.00K 0.00K
REDBUSH JOHNSON CO. KY 06/29/2012 18:10 EST-5 Thunderstorm Wind 52 kts. EG 0 0 5.00K 0.00K
STANTON POWELL CO. KY 06/29/2012 18:10 EST-5 Thunderstorm Wind 52 kts. EG 0 0 20.00K 0.00K
WEST LIBERTY MORGAN CO. KY 06/29/2012 18:10 EST-5 Thunderstorm Wind 52 kts. EG 0 0 10.00K 0.00K
PINE RIDGE WOLFE CO. KY 06/29/2012 18:17 EST-5 Thunderstorm Wind 52 kts. EG 0 0 1.00K 0.00K
TOLIVER WOLFE CO. KY 06/29/2012 18:18 EST-5 Thunderstorm Wind 52 kts. EG 0 0 1.00K 0.00K
STILLWATER WOLFE CO. KY 06/29/2012 18:19 EST-5 Thunderstorm Wind 52 kts. EG 0 0 1.00K 0.00K
PAINTSVILLE JOHNSON CO. KY 06/29/2012 18:23 EST-5 Thunderstorm Wind 52 kts. EG 0 0 2.00K 0.00K
IRVINE ESTILL CO. KY 06/29/2012 18:25 EST-5 Thunderstorm Wind 52 kts. EG 0 0 20.00K 0.00K
PAINTSVILLE JOHNSON CO. KY 06/29/2012 18:25 EST-5 Thunderstorm Wind 52 kts. EG 0 0 10.00K 0.00K
INEZ MARTIN CO. KY 06/29/2012 18:30 EST-5 Thunderstorm Wind 52 kts. EG 0 0 50.00K 0.00K
PRESTONSBURG FLOYD CO. KY 06/29/2012 18:36 EST-5 Thunderstorm Wind 52 kts. EG 0 0 50.00K 0.00K
TURKEY CREEK PIKE CO. KY 06/29/2012 18:42 EST-5 Thunderstorm Wind 81 kts. MG 0 0 6.00K 0.00K
YEADON BREATHITT CO. KY 06/29/2012 18:43 EST-5 Thunderstorm Wind 52 kts. EG 0 0 15.00K 0.00K
ELNA JOHNSON CO. KY 06/29/2012 18:45 EST-5 Thunderstorm Wind 52 kts. EG 0 0 6.00K 0.00K
FOREST HILLS PIKE CO. KY 06/29/2012 18:45 EST-5 Thunderstorm Wind 52 kts. EG 0 0 40.00K 0.00K
PEG PIKE CO. KY 06/29/2012 18:58 EST-5 Thunderstorm Wind 52 kts. EG 0 0 20.00K 0.00K
RACCOON PIKE CO. KY 06/29/2012 18:58 EST-5 Thunderstorm Wind 52 kts. EG 0 0 30.00K 0.00K
SITKA JOHNSON CO. KY 06/29/2012 18:58 EST-5 Hail 1.00 in. 0 0 0.00K 0.00K
MOUTHCARD PIKE CO. KY 06/29/2012 19:00 EST-5 Thunderstorm Wind 55 kts. EG 0 0 8.00K 0.00K
SHELBIANA PIKE CO. KY 06/29/2012 19:00 EST-5 Thunderstorm Wind 52 kts. EG 0 0 8.00K 0.00K
STAFFORDSVILLE JOHNSON CO. KY 06/29/2012 19:03 EST-5 Hail 1.00 in. 0 0 0.00K 0.00K
STAFFORDSVILLE JOHNSON CO. KY 06/29/2012 19:03 EST-5 Thunderstorm Wind 59 kts. EG 0 0 10.00K 0.00K
SHELBIANA PIKE CO. KY 06/29/2012 19:07 EST-5 Thunderstorm Wind 61 kts. EG 0 0 2.00K 0.00K
FEDSCREEK PIKE CO. KY 06/29/2012 19:10 EST-5 Thunderstorm Wind 52 kts. EG 0 0 30.00K 0.00K
Totals: 0 0 742.00K 0.00K